Ypsilanti, North Dakota
Current Conditions -  °F | °C
As of 10:56 PM on Friday 28 Nov 2014 (Local Time) from KJMS Reporting Station
Broken Clouds Broken Clouds  
Wind Chill:   Ceiling: 11000
Heat Index: 16°   Visibility: 10mi
Dew Point: 12°   Wind: 13mph
Humidity: 84%   Direction: 170°S
Pressure: 29.48"   Gusts: NA
Location:  46.78°N, 98.57°W
Report Text: KJMS 290456Z AUTO 17011KT 10SM BKN110 M09/M11 A2948 RMK AO2 SLP013 T10891111
Loading
Personal Weather Stations






























Interactive Weather Map New forecast layout! Learn more

10-Day Weather Forecast

Advertisements
Track Severe Weather on mobile